createdAt,value
2024-05-09T00:02:14.716Z,67.61
2024-05-09T00:05:42.866Z,67.75
2024-05-09T00:09:09.793Z,67.88
2024-05-09T00:12:36.373Z,67.89
2024-05-09T00:16:15.698Z,68.32
2024-05-09T00:19:43.676Z,68.50
2024-05-09T00:23:12.397Z,68.81
2024-05-09T00:26:38.306Z,69.13
2024-05-09T00:30:07.055Z,69.31
2024-05-09T00:33:33.749Z,69.44
2024-05-09T00:37:00.864Z,69.75
2024-05-09T00:40:37.712Z,69.99
2024-05-09T00:44:08.497Z,69.83
2024-05-09T00:47:35.128Z,69.92
2024-05-09T00:51:02.691Z,69.95
2024-05-09T00:54:29.395Z,69.92
2024-05-09T00:57:56.588Z,70.02
2024-05-09T01:01:25.048Z,69.88
2024-05-09T01:04:53.580Z,70.16
2024-05-09T01:08:20.554Z,70.40
2024-05-09T01:11:54.391Z,70.69
2024-05-09T01:15:21.070Z,70.83
2024-05-09T01:18:47.596Z,71.12
2024-05-09T01:22:14.340Z,71.21
2024-05-09T01:25:40.905Z,71.45
2024-05-09T01:29:20.080Z,71.64
2024-05-09T02:04:37.857Z,74.44
2024-05-09T02:08:04.506Z,74.46
2024-05-09T02:11:31.243Z,74.53
2024-05-09T02:14:58.205Z,74.67
2024-05-09T02:18:24.669Z,75.17
2024-05-09T02:21:51.157Z,75.67
2024-05-09T02:25:18.023Z,75.53
2024-05-09T02:28:44.451Z,75.62
2024-05-09T02:32:11.006Z,76.03
2024-05-09T02:35:37.605Z,76.27
2024-05-09T02:39:04.290Z,76.28
2024-05-09T02:42:31.326Z,76.29
2024-05-09T02:45:57.814Z,76.29
2024-05-09T02:49:24.431Z,76.39
2024-05-09T02:52:51.316Z,76.34
2024-05-09T02:56:17.837Z,76.33
2024-05-09T02:59:45.177Z,76.39
2024-05-09T03:03:14.455Z,76.23
2024-05-09T03:06:44.092Z,76.14
2024-05-09T03:10:18.338Z,76.13
2024-05-09T03:13:51.514Z,75.99
2024-05-09T03:17:18.615Z,75.85
2024-05-09T03:20:45.348Z,75.80
2024-05-09T03:24:13.053Z,75.94
2024-05-09T03:27:41.027Z,76.10
2024-05-09T03:31:10.381Z,76.12
2024-05-09T03:34:40.695Z,76.30
2024-05-09T03:38:07.259Z,76.37
2024-05-09T03:41:33.917Z,76.85
2024-05-09T03:45:00.884Z,77.15
2024-05-09T03:48:27.823Z,77.17
2024-05-09T03:51:54.293Z,77.00
2024-05-09T03:55:20.678Z,76.38
2024-05-09T03:58:47.490Z,76.05
2024-05-09T04:02:14.155Z,75.48
2024-05-09T04:05:42.333Z,75.06
2024-05-09T04:09:09.975Z,74.04
2024-05-09T04:12:36.575Z,73.26
2024-05-09T04:16:03.048Z,72.70
2024-05-09T04:19:30.048Z,72.10
2024-05-09T04:22:56.520Z,72.15
2024-05-09T04:26:23.109Z,71.91
2024-05-09T04:29:49.620Z,71.05
2024-05-09T04:33:16.475Z,70.72
2024-05-09T04:36:44.666Z,69.75
2024-05-09T04:40:24.000Z,68.86
2024-05-09T04:43:57.796Z,67.86
2024-05-09T04:47:24.419Z,67.33
2024-05-09T04:50:51.289Z,66.92
2024-05-09T04:54:26.267Z,66.22
2024-05-09T04:58:01.564Z,65.41
